Mont 2014
Skip Navigation Links
25 October 2014
HyperLink
Page 1 of 11 (501 items)
[1]234567891011
Pos
Race No
Fav
Share
Name
Time
Category
Cat Pos
Gender
Laps
Fastest Lap
Slowest Lap
Average Lap
Dist Done
17110SMOOTH TRANSITION 24:40:16Six Packs - OPEN - Male1Male2847:5058:1152:30534.8
27128SPEARMAN CYCLES 24:22:31Six Packs - OPEN - Male2Male2746:3058:4353:47515.7
34500JETBLACK RACING 24:39:07Foursomes - OPEN Male1Male2751:1858:1554:24515.7
46780GHD CORK SNIFFERS 24:50:10Six Packs - OPEN - Male3Male2746:5359:0954:48515.7
57032PLANET ENDURO RACING 24:12:27Six Packs - OPEN - Male4Male2643:561:05:3255:27496.6
67158SYNERGY ACERS 24:29:53Six Packs - OPEN - Male5Male2649:381:01:2256:06496.6
77386BIKE BULLER 24:31:45Six Packs - OPEN - Male6Male2648:381:03:3956:10496.6
84872DELICIOUS 24:36:21Foursomes - OPEN Mixed1Mixed2647:231:07:0256:19496.6
94616RIDE ETTALONG ELITE 24:36:39Foursomes - OPEN Male2Male2651:181:04:0956:26496.6
104148ROLLING GROUNDS ROASTERS 24:38:34Foursomes - Honest 40s - Male1Male2647:211:05:5156:25496.6
114144RIDE ETTALONG MASTERS 24:39:07Foursomes - Honest 40s - Male2Male2649:381:00:2656:29496.6
124436GCCS - NEXKD MINUTE 24:46:45Foursomes - OPEN Male3Male2651:201:05:0756:46496.6
1340083LEFTY 24:47:59Foursomes - OPEN Mixed2Mixed2650:081:14:4856:50496.6
147585Newcastle Cog Heads Fc 24:49:17Foursomes - OPEN Mixed3Mixed2652:321:01:3256:51496.6
152024HORCCULES MILKS THE KOW 24:57:42Brady Bunch1Mixed2652:271:04:1657:12496.6
166594CANBERRA MC CENTRE DUCATI 24:03:13Six Packs - OPEN - Male7Male2548:361:04:5757:18477.5
176042ARE YOU OLD ENOUGH 24:05:10Six Packs - Honest 40s - Male1Male2548:521:03:4857:20477.5
184280GRAPHITE PROJECTS 24:06:25Foursomes - OPEN Male4Male2550:281:03:0257:26477.5
1974045 BLOKES AND ONE CHICK 24:08:12Six Packs - OPEN - Mixed1Mixed2548:361:10:2557:30477.5
204032BENNY AND THE JETS 24:11:07Foursomes - Honest 40s - Male3Male2551:521:05:1657:39477.5
2140003FIDI COACHED 24:17:01Foursomes - Honest 40s - Male4Male2547:541:04:4657:54477.5
225024THE LACK OF HYPE IS THE HYPE 24:23:54Singles Club - Male Single Speed (Team of 4)1Male2552:261:00:5858:03477.5
237044Rods guey Red Rocket 24:24:42Six Packs - OPEN - Male8Male2550:311:07:3758:07477.5
246210NEWY COGHEADS PH 24:25:59Six Packs - Honest 40s - Male2Male2551:311:04:4358:10477.5
254844BIKEWORX 24:26:28Foursomes - OPEN Mixed4Mixed2549:051:12:2158:11477.5
264520KRUSTY MIX 24:26:55Foursomes - OPEN Mixed5Mixed2548:341:07:4258:15477.5
276138GU LARD 1 24:37:40Six Packs - Honest 40s - Male3Male2551:071:12:0158:28477.5
282012CRANKENSTEINS DE PUIT FLOCK 24:37:51Brady Bunch2Mixed2546:511:18:2158:42477.5
295012JIGSAW HOUSING 24:42:40Singles Club - Male Single Speed (Team of 4)2Male2553:161:06:5358:49477.5
304388DIAMOND CYCLE TOURS 24:52:53Foursomes - OPEN Male5Male2552:131:30:5859:19477.5
317194TEAM HIGH NOON 23:26:41Six Packs - OPEN - Male9Male2452:581:03:2458:11458.4
3264866 SAGGY SACKS 23:29:32Six Packs - OPEN - Male10Male2450:291:12:2858:12458.4
334340CADENCE & CO 23:45:01Foursomes - OPEN Male6Male2450:211:10:0258:59458.4
347038PUMPERS OF GU 24:06:54Six Packs - OPEN - Male11Male2452:571:05:3959:45458.4
351060CORC JUNIOR 1 24:10:49Young Guns - Mixed (Team of 6)1Mixed2452:341:10:111:00:00458.4
367764All The Lads 24:10:53Young Guns - Male (Team of 6)1Male2449:341:03:3256:18458.4
374104JINDY JOKERS 24:11:39Foursomes - Honest 40s - Male5Male2450:301:23:021:00:02458.4
387686TEAM HARTLEY 24:20:00Six Packs - OPEN - Mixed2Mixed2454:251:18:521:00:23458.4
395016LIONS AND TIGERS AND BEARS 24:25:53Singles Club - Male Single Speed (Team of 4)3Male2454:031:05:521:00:33458.4
404612RIDE ETTALONG 24:25:56Foursomes - OPEN Male7Male2451:041:07:171:00:32458.4
414204BOBBIN HEAD BOMBERS 24:26:07Foursomes - Honest 40s - Mixed1Mixed2450:041:18:261:00:36458.4
424600PROXIMITY LEGAL 24:34:41Foursomes - OPEN Male8Male2455:161:07:571:00:52458.4
434932PROFESSIONAL AMATEURS 24:41:36Foursomes - OPEN Mixed6Mixed2452:361:08:531:01:07458.4
444688BFAM RACING 24:41:54Foursomes - Honest 40s - Male6Male2449:371:07:411:01:10458.4
456786GHD MEMORIAL STUNT TEAM 24:42:41Six Packs - OPEN - Male12Male2455:301:12:311:01:18458.4
466150GU SKULLIES 24:42:42Six Packs - Honest 40s - Male4Male2453:491:16:261:01:14458.4
474016ACCIDENTAL STUNTMEN 4 24:43:08Foursomes - Honest 40s - Male7Male2453:221:12:561:01:05458.4
487782TWO BEFORE TEN COFFEE ROASTERS 24:44:40Six Packs - OPEN - Mixed3Mixed2453:591:31:271:01:23458.4
496948MOONSHINE 6 24:45:36Six Packs - OPEN - Male13Male2454:071:08:321:01:27458.4
506738FIVE MEN AND A BABY 24:52:13Six Packs - OPEN - Male14Male2455:261:14:391:01:33458.4
Page 1 of 11 (501 items)
[1]234567891011
fb

HyperLink Copyright (c) G Vincent, 2017